createdAt,value
2022-08-19T00:01:11.210Z,98199.53
2022-08-19T00:04:13.992Z,98199.06
2022-08-19T00:07:16.262Z,98221.53
2022-08-19T00:10:18.266Z,98218.75
2022-08-19T00:13:19.877Z,98231.09
2022-08-19T00:16:25.123Z,98213.63
2022-08-19T00:19:27.885Z,98213.78
2022-08-19T00:22:29.490Z,98223.72
2022-08-19T00:25:31.064Z,98228.94
2022-08-19T00:28:33.961Z,98225.44
2022-08-19T00:31:37.749Z,98225.78
2022-08-19T00:34:39.311Z,98226.25
2022-08-19T00:37:44.234Z,98229.09
2022-08-19T00:40:48.497Z,98222.84
2022-08-19T00:44:00.615Z,98232.78
2022-08-19T00:47:02.266Z,98223.00
2022-08-19T00:50:04.296Z,98229.16
2022-08-19T00:53:07.022Z,98218.72
2022-08-19T00:56:09.461Z,98221.59
2022-08-19T00:59:11.132Z,98226.78
2022-08-19T01:02:13.176Z,98232.63
2022-08-19T01:05:20.862Z,98230.41
2022-08-19T01:08:22.739Z,98237.00
2022-08-19T01:11:24.334Z,98234.34
2022-08-19T01:14:25.949Z,98237.47
2022-08-19T01:17:27.925Z,98232.56
2022-08-19T01:20:29.525Z,98238.22
2022-08-19T01:23:46.134Z,98244.66
2022-08-19T01:26:47.746Z,98253.13
2022-08-19T01:29:50.578Z,98252.50
2022-08-19T01:32:52.711Z,98258.59
2022-08-19T01:35:54.305Z,98261.00
2022-08-19T01:38:56.237Z,98260.00
2022-08-19T01:41:57.914Z,98251.63
2022-08-19T01:44:59.518Z,98248.41
2022-08-19T01:48:02.218Z,98252.31
2022-08-19T01:51:04.293Z,98259.00
2022-08-19T01:54:05.886Z,98262.28
2022-08-19T01:57:12.292Z,98267.53
2022-08-19T02:00:15.970Z,98263.94
2022-08-19T02:03:17.592Z,98280.16
2022-08-19T02:06:19.146Z,98273.69
2022-08-19T02:09:28.669Z,98263.00
2022-08-19T02:12:30.313Z,98276.97
2022-08-19T02:15:33.097Z,98265.50
2022-08-19T02:18:34.712Z,98272.75
2022-08-19T02:21:36.325Z,98276.59
2022-08-19T02:24:39.894Z,98279.09
2022-08-19T02:27:41.761Z,98276.44
2022-08-19T02:30:43.502Z,98289.63
2022-08-19T02:33:45.582Z,98301.88
2022-08-19T02:36:51.941Z,98306.25
2022-08-19T02:39:54.083Z,98310.44
2022-08-19T02:42:55.790Z,98307.47
2022-08-19T02:45:57.401Z,98310.03
2022-08-19T02:49:00.549Z,98307.94
2022-08-19T02:52:02.210Z,98304.94
2022-08-19T02:55:04.451Z,98320.00
2022-08-19T02:58:07.366Z,98313.22
2022-08-19T03:01:10.069Z,98314.00
2022-08-19T03:04:12.423Z,98319.81
2022-08-19T03:07:15.989Z,98318.75
2022-08-19T03:10:17.675Z,98315.22
2022-08-19T03:13:19.313Z,98318.00
2022-08-19T03:16:24.235Z,98326.44
2022-08-19T03:19:25.846Z,98333.75
2022-08-19T03:22:27.881Z,98339.09
2022-08-19T03:25:29.446Z,98340.78
2022-08-19T03:28:31.053Z,98342.00
2022-08-19T03:31:41.771Z,98350.13
2022-08-19T03:34:47.419Z,98341.72
2022-08-19T03:37:49.005Z,98349.41
2022-08-19T03:40:50.606Z,98345.38
2022-08-19T03:43:52.827Z,98342.28
2022-08-19T03:46:56.279Z,98343.44
2022-08-19T03:49:57.915Z,98347.53
2022-08-19T03:52:59.527Z,98351.19
2022-08-19T03:56:01.142Z,98350.31
2022-08-19T03:59:03.062Z,98344.50
2022-08-19T04:02:10.287Z,98352.00
2022-08-19T04:05:12.043Z,98351.59
2022-08-19T04:08:14.134Z,98361.09
2022-08-19T04:11:16.801Z,98348.13
2022-08-19T04:14:19.561Z,98353.28
2022-08-19T04:17:21.193Z,98356.72
2022-08-19T04:20:22.774Z,98361.47
2022-08-19T04:23:24.581Z,98363.34
2022-08-19T04:26:33.048Z,98372.94
2022-08-19T04:29:34.654Z,98382.31
2022-08-19T04:32:36.512Z,98379.16
2022-08-19T04:35:39.005Z,98378.06
2022-08-19T04:38:40.590Z,98396.47
2022-08-19T04:42:00.527Z,98394.50
2022-08-19T04:45:03.886Z,98393.91
2022-08-19T04:48:19.737Z,98405.63
2022-08-19T04:51:28.618Z,98403.28
2022-08-19T04:54:37.628Z,98414.06
2022-08-19T04:57:41.213Z,98404.16
2022-08-19T05:00:42.940Z,98409.19
2022-08-19T05:03:44.647Z,98409.59
2022-08-19T05:06:48.162Z,98410.63
2022-08-19T05:09:57.894Z,98412.81
2022-08-19T05:13:00.581Z,98409.63
2022-08-19T05:16:02.183Z,98412.47
2022-08-19T05:19:22.327Z,98413.25
2022-08-19T05:22:33.955Z,98417.81
2022-08-19T05:25:35.599Z,98417.50
2022-08-19T05:28:37.190Z,98428.91
2022-08-19T05:31:39.471Z,98429.88
2022-08-19T05:34:43.872Z,98423.16
2022-08-19T05:37:45.442Z,98425.16
2022-08-19T05:40:47.985Z,98439.94
2022-08-19T05:43:51.114Z,98439.38
2022-08-19T05:46:55.389Z,98442.03
2022-08-19T05:49:56.966Z,98440.94
2022-08-19T05:52:58.562Z,98438.69
2022-08-19T05:56:04.811Z,98441.16
2022-08-19T05:59:09.922Z,98444.81
2022-08-19T06:02:11.587Z,98440.31
2022-08-19T06:05:13.281Z,98441.94
2022-08-19T06:08:14.913Z,98444.81
2022-08-19T06:11:18.013Z,98441.31
2022-08-19T06:14:21.508Z,98446.50
2022-08-19T06:17:31.335Z,98447.88
2022-08-19T06:20:55.031Z,98438.69
2022-08-19T06:23:57.289Z,98441.44
2022-08-19T06:27:01.566Z,98443.03
2022-08-19T06:30:04.338Z,98447.34
2022-08-19T06:33:05.898Z,98443.59
2022-08-19T06:36:07.867Z,98441.53
2022-08-19T06:39:10.994Z,98442.97
2022-08-19T06:42:17.621Z,98440.13
2022-08-19T06:45:21.501Z,98442.84
2022-08-19T06:48:26.866Z,98449.72
2022-08-19T06:54:33.447Z,98450.75
2022-08-19T06:57:39.426Z,98447.63
2022-08-19T07:00:41.173Z,98448.50
2022-08-19T07:03:42.814Z,98447.91
2022-08-19T07:06:44.926Z,98446.50
2022-08-19T07:09:58.412Z,98441.34
2022-08-19T07:13:01.893Z,98449.50
2022-08-19T07:16:09.645Z,98455.78
2022-08-19T07:19:16.088Z,98460.16
2022-08-19T07:22:18.904Z,98459.50
2022-08-19T07:25:21.950Z,98458.03
2022-08-19T07:28:34.246Z,98471.28
2022-08-19T07:31:38.816Z,98470.22
2022-08-19T07:34:40.397Z,98468.38
2022-08-19T07:37:45.294Z,98475.97
2022-08-19T07:40:47.114Z,98472.56
2022-08-19T07:43:49.129Z,98475.44
2022-08-19T07:46:53.376Z,98475.91
2022-08-19T07:49:55.131Z,98470.88
2022-08-19T07:52:57.671Z,98469.13
2022-08-19T07:56:02.777Z,98499.13
2022-08-19T07:59:04.378Z,98485.84
2022-08-19T08:02:06.412Z,98485.06
2022-08-19T08:05:26.601Z,98471.13
2022-08-19T08:08:48.157Z,98493.38
2022-08-19T08:12:02.101Z,98480.41
2022-08-19T08:15:08.944Z,98498.75
2022-08-19T08:18:14.631Z,98494.06
2022-08-19T08:21:16.674Z,98483.97
2022-08-19T08:24:18.494Z,98494.84
2022-08-19T08:27:21.692Z,98497.53
2022-08-19T08:30:31.267Z,98502.66
2022-08-19T08:33:35.355Z,98506.69
2022-08-19T08:36:41.737Z,98502.19
2022-08-19T08:39:43.322Z,98507.88
2022-08-19T08:42:46.563Z,98507.44
2022-08-19T08:45:53.510Z,98494.00
2022-08-19T08:48:57.599Z,98497.28
2022-08-19T08:52:21.294Z,98500.16
2022-08-19T08:55:36.634Z,98496.81
2022-08-19T08:58:54.645Z,98499.66
2022-08-19T09:01:56.823Z,98509.69
2022-08-19T09:04:58.726Z,98512.03
2022-08-19T09:08:09.862Z,98519.13
2022-08-19T09:11:42.984Z,98520.75
2022-08-19T09:14:51.970Z,98500.91
2022-08-19T09:17:53.958Z,98513.94
2022-08-19T09:20:57.222Z,98499.25
2022-08-19T09:23:59.781Z,98498.38
2022-08-19T09:27:07.960Z,98500.00
2022-08-19T09:30:25.839Z,98500.81
2022-08-19T09:33:28.006Z,98509.97
2022-08-19T09:36:37.110Z,98496.94
2022-08-19T09:39:39.685Z,98495.63
2022-08-19T09:42:50.334Z,98512.53
2022-08-19T09:45:54.211Z,98507.50
2022-08-19T09:48:56.405Z,98511.22
2022-08-19T09:51:58.668Z,98521.53
2022-08-19T09:55:00.634Z,98520.56
2022-08-19T09:58:02.567Z,98512.56
2022-08-19T10:01:05.570Z,98536.97
2022-08-19T10:04:19.719Z,98522.91
2022-08-19T10:07:22.861Z,98519.84
2022-08-19T10:10:30.694Z,98513.41
2022-08-19T10:13:36.906Z,98517.44
2022-08-19T10:16:40.094Z,98513.41
2022-08-19T10:19:41.923Z,98501.84
2022-08-19T10:22:56.903Z,98479.00
2022-08-19T10:26:00.405Z,98489.28
2022-08-19T10:29:02.313Z,98474.75
2022-08-19T10:32:09.845Z,98481.44
2022-08-19T10:35:11.913Z,98499.69
2022-08-19T10:38:17.622Z,98487.88
2022-08-19T10:41:20.224Z,98488.56
2022-08-19T10:44:22.571Z,98504.34
2022-08-19T10:47:25.852Z,98510.88
2022-08-19T10:50:46.177Z,98489.13
2022-08-19T10:53:47.878Z,98492.75
2022-08-19T10:56:52.303Z,98479.72
2022-08-19T10:59:54.030Z,98478.94
2022-08-19T11:02:56.788Z,98494.00
2022-08-19T11:06:01.697Z,98497.00
2022-08-19T11:09:03.456Z,98511.00
2022-08-19T11:12:05.257Z,98530.47
2022-08-19T11:15:08.697Z,98501.50
2022-08-19T11:18:13.209Z,98503.66
2022-08-19T11:21:18.227Z,98512.69
2022-08-19T11:24:21.362Z,98512.97
2022-08-19T11:27:22.938Z,98505.97
2022-08-19T11:30:24.570Z,98503.41
2022-08-19T11:33:27.324Z,98508.38
2022-08-19T11:36:29.182Z,98499.50
2022-08-19T11:39:31.747Z,98496.56
2022-08-19T11:42:52.045Z,98508.19
2022-08-19T11:45:54.377Z,98511.97
2022-08-19T11:48:56.589Z,98507.84
2022-08-19T11:51:59.332Z,98499.38
2022-08-19T11:55:01.058Z,98506.13
2022-08-19T11:58:02.589Z,98496.69
2022-08-19T12:01:08.483Z,98491.47
2022-08-19T12:04:10.493Z,98501.81
2022-08-19T12:07:12.095Z,98479.28
2022-08-19T12:10:13.722Z,98487.66
2022-08-19T12:13:20.067Z,98505.47
2022-08-19T12:16:24.404Z,98499.84
2022-08-19T12:19:26.434Z,98488.50
2022-08-19T12:22:29.125Z,98495.34
2022-08-19T12:25:31.875Z,98507.75
2022-08-19T12:28:33.485Z,98514.47
2022-08-19T12:31:35.372Z,98501.28
2022-08-19T12:34:38.956Z,98509.66
2022-08-19T12:37:45.666Z,98522.38
2022-08-19T12:41:00.453Z,98500.81
2022-08-19T12:44:02.183Z,98492.75
2022-08-19T12:47:05.365Z,98521.28
2022-08-19T12:50:09.704Z,98496.31
2022-08-19T12:53:11.275Z,98508.66
2022-08-19T12:56:15.340Z,98523.34
2022-08-19T12:59:18.586Z,98520.25
2022-08-19T13:02:21.041Z,98506.09
2022-08-19T13:05:23.837Z,98512.84
2022-08-19T13:08:25.672Z,98523.16
2022-08-19T13:11:27.365Z,98540.50
2022-08-19T13:14:31.590Z,98536.13
2022-08-19T13:17:35.534Z,98517.19
2022-08-19T13:20:38.067Z,98524.69
2022-08-19T13:23:40.524Z,98530.38
2022-08-19T13:26:42.269Z,98527.38
2022-08-19T13:30:02.537Z,98512.63
2022-08-19T13:33:16.122Z,98529.69
2022-08-19T13:36:17.880Z,98529.00
2022-08-19T13:39:20.182Z,98545.28
2022-08-19T13:42:21.753Z,98557.09
2022-08-19T13:45:25.197Z,98557.88
2022-08-19T13:48:27.953Z,98580.41
2022-08-19T13:51:29.679Z,98558.25
2022-08-19T13:54:31.339Z,98573.09
2022-08-19T13:57:33.188Z,98561.22
2022-08-19T14:00:37.659Z,98570.50
2022-08-19T14:03:39.354Z,98570.09
2022-08-19T14:06:41.025Z,98564.34
2022-08-19T14:09:42.723Z,98572.78
2022-08-19T14:12:45.008Z,98549.66
2022-08-19T14:15:47.004Z,98554.75
2022-08-19T14:18:48.599Z,98566.03
2022-08-19T14:21:50.242Z,98548.63
2022-08-19T14:24:51.815Z,98554.53
2022-08-19T14:27:53.617Z,98586.56
2022-08-19T14:30:56.587Z,98544.63
2022-08-19T14:33:58.357Z,98578.63
2022-08-19T14:37:00.033Z,98582.19
2022-08-19T14:40:04.725Z,98571.75
2022-08-19T14:43:06.464Z,98567.38
2022-08-19T14:46:08.987Z,98592.19
2022-08-19T14:49:12.185Z,98585.72
2022-08-19T14:52:13.941Z,98583.56
2022-08-19T14:55:16.211Z,98582.19
2022-08-19T14:58:29.072Z,98583.88
2022-08-19T15:01:31.932Z,98572.19
2022-08-19T15:04:33.911Z,98568.72
2022-08-19T15:07:35.570Z,98563.03
2022-08-19T15:10:39.111Z,98564.16
2022-08-19T15:13:40.731Z,98607.97
2022-08-19T15:16:42.739Z,98572.13
2022-08-19T15:19:44.371Z,98579.19
2022-08-19T15:22:46.191Z,98580.69
2022-08-19T15:25:47.944Z,98583.19
2022-08-19T15:28:49.654Z,98584.53
2022-08-19T15:31:52.187Z,98590.75
2022-08-19T15:34:56.063Z,98596.63
2022-08-19T15:37:57.704Z,98584.94
2022-08-19T15:41:19.249Z,98591.22
2022-08-19T15:44:22.127Z,98590.09
2022-08-19T15:47:23.775Z,98591.19
2022-08-19T15:50:25.518Z,98606.00
2022-08-19T15:53:27.106Z,98615.56
2022-08-19T15:56:58.308Z,98582.41
2022-08-19T16:00:18.888Z,98621.50
2022-08-19T16:03:40.216Z,98556.63
2022-08-19T16:06:44.598Z,98584.53
2022-08-19T16:09:46.165Z,98629.03
2022-08-19T16:12:47.732Z,98601.59
2022-08-19T16:15:49.316Z,98599.34
2022-08-19T16:18:53.614Z,98610.16
2022-08-19T16:21:56.003Z,98597.63
2022-08-19T16:24:57.909Z,98621.22
2022-08-19T16:28:06.455Z,98608.22
2022-08-19T16:31:10.449Z,98638.94
2022-08-19T16:34:12.432Z,98605.06
2022-08-19T16:37:14.365Z,98601.19
2022-08-19T16:40:16.054Z,98611.22
2022-08-19T16:43:17.722Z,98616.03
2022-08-19T16:46:20.524Z,98609.06
2022-08-19T16:49:52.340Z,98594.66
2022-08-19T16:52:47.788Z,98618.09
2022-08-19T16:55:57.407Z,98620.41
2022-08-19T16:59:02.191Z,98612.34
2022-08-19T17:02:03.930Z,98602.19
2022-08-19T17:05:07.426Z,98616.06
2022-08-19T17:08:09.059Z,98643.13
2022-08-19T17:11:18.137Z,98626.09
2022-08-19T17:14:21.935Z,98620.78
2022-08-19T17:17:27.034Z,98620.38
2022-08-19T17:20:31.083Z,98611.34
2022-08-19T17:23:43.126Z,98614.47
2022-08-19T17:26:45.759Z,98610.34
2022-08-19T17:29:47.482Z,98623.63
2022-08-19T17:32:49.417Z,98597.56
2022-08-19T17:35:51.013Z,98624.44
2022-08-19T17:38:52.880Z,98622.56
2022-08-19T17:41:55.146Z,98612.03
2022-08-19T17:44:59.273Z,98608.13
2022-08-19T17:48:01.429Z,98606.56
2022-08-19T17:51:12.986Z,98627.53
2022-08-19T17:54:15.965Z,98634.50
2022-08-19T17:57:17.654Z,98615.84
2022-08-19T18:00:19.632Z,98609.03
2022-08-19T18:03:21.262Z,98643.91
2022-08-19T18:06:23.137Z,98630.16
2022-08-19T18:09:25.970Z,98634.25
2022-08-19T18:12:27.666Z,98637.53
2022-08-19T18:15:29.283Z,98623.97
2022-08-19T18:18:30.963Z,98617.38
2022-08-19T18:21:35.916Z,98627.13
2022-08-19T18:24:38.530Z,98619.72
2022-08-19T18:27:40.308Z,98627.94
2022-08-19T18:30:42.936Z,98643.44
2022-08-19T18:33:45.093Z,98649.53
2022-08-19T18:36:54.329Z,98642.78
2022-08-19T18:40:14.677Z,98655.97
2022-08-19T18:43:35.098Z,98641.03
2022-08-19T18:46:57.360Z,98638.88
2022-08-19T18:50:03.383Z,98654.34
2022-08-19T18:53:07.133Z,98663.97
2022-08-19T18:56:10.030Z,98651.16
2022-08-19T18:59:14.136Z,98648.34
2022-08-19T19:02:18.282Z,98648.63
2022-08-19T19:05:21.695Z,98643.88
2022-08-19T19:08:26.875Z,98659.53
2022-08-19T19:11:33.979Z,98648.63
2022-08-19T19:14:49.060Z,98654.63
2022-08-19T19:17:51.292Z,98651.47
2022-08-19T19:20:57.226Z,98657.97
2022-08-19T19:23:58.950Z,98656.06
2022-08-19T19:27:01.494Z,98660.94
2022-08-19T19:30:03.369Z,98659.53
2022-08-19T19:33:05.263Z,98656.19
2022-08-19T19:36:07.006Z,98657.78
2022-08-19T19:39:08.575Z,98659.97
2022-08-19T19:42:12.466Z,98664.06
2022-08-19T19:45:16.760Z,98671.66
2022-08-19T19:48:18.470Z,98669.28
2022-08-19T19:51:20.049Z,98679.53
2022-08-19T19:54:23.579Z,98667.03
2022-08-19T19:57:26.851Z,98670.06
2022-08-19T20:00:28.905Z,98672.72
2022-08-19T20:03:31.194Z,98684.88
2022-08-19T20:06:33.542Z,98674.16
2022-08-19T20:09:56.334Z,98674.16
2022-08-19T20:12:56.986Z,98670.38
2022-08-19T20:15:58.622Z,98676.50
2022-08-19T20:19:00.826Z,98679.34
2022-08-19T20:22:02.405Z,98688.84
2022-08-19T20:25:06.330Z,98687.53
2022-08-19T20:28:08.202Z,98686.75
2022-08-19T20:31:10.469Z,98686.09
2022-08-19T20:34:12.001Z,98686.38
2022-08-19T20:37:13.538Z,98700.91
2022-08-19T20:40:15.457Z,98695.38
2022-08-19T20:43:17.038Z,98697.09
2022-08-19T20:46:18.842Z,98690.16
2022-08-19T20:49:20.373Z,98684.00
2022-08-19T20:52:21.908Z,98680.63
2022-08-19T20:55:23.464Z,98682.81
2022-08-19T20:58:25.244Z,98673.75
2022-08-19T21:01:26.885Z,98673.97
2022-08-19T21:04:28.585Z,98667.97
2022-08-19T21:07:39.400Z,98667.28
2022-08-19T21:10:42.498Z,98676.44
2022-08-19T21:13:44.153Z,98679.72
2022-08-19T21:16:46.233Z,98684.84
2022-08-19T21:19:47.769Z,98693.91
2022-08-19T21:22:49.393Z,98701.03
2022-08-19T21:25:54.454Z,98703.50
2022-08-19T21:28:56.403Z,98699.56
2022-08-19T21:31:57.953Z,98704.25
2022-08-19T21:34:59.488Z,98710.22
2022-08-19T21:38:01.960Z,98701.09
2022-08-19T21:41:06.143Z,98702.94
2022-08-19T21:44:07.892Z,98701.78
2022-08-19T21:47:09.430Z,98704.41
2022-08-19T21:50:12.555Z,98699.66
2022-08-19T21:53:17.410Z,98701.75
2022-08-19T21:56:19.370Z,98701.47
2022-08-19T21:59:22.010Z,98684.69
2022-08-19T22:02:23.649Z,98689.72
2022-08-19T22:05:25.655Z,98697.38
2022-08-19T22:08:27.336Z,98693.72
2022-08-19T22:11:28.950Z,98694.75
2022-08-19T22:14:31.345Z,98694.97
2022-08-19T22:17:33.285Z,98687.78
2022-08-19T22:20:34.870Z,98685.53
2022-08-19T22:23:36.523Z,98697.44
2022-08-19T22:26:38.178Z,98695.19
2022-08-19T22:29:39.754Z,98699.72
2022-08-19T22:32:48.681Z,98689.63
2022-08-19T22:35:57.847Z,98698.38
2022-08-19T22:38:59.947Z,98692.22
2022-08-19T22:42:01.730Z,98689.94
2022-08-19T22:45:03.598Z,98694.00
2022-08-19T22:48:07.885Z,98695.47
2022-08-19T22:51:28.306Z,98677.28
2022-08-19T22:54:31.090Z,98670.00
2022-08-19T22:57:32.741Z,98682.88
2022-08-19T23:00:34.381Z,98682.09
2022-08-19T23:03:36.020Z,98681.91
2022-08-19T23:06:41.498Z,98681.72
2022-08-19T23:09:43.837Z,98677.16
2022-08-19T23:12:47.558Z,98681.53
2022-08-19T23:15:49.297Z,98688.88
2022-08-19T23:18:50.854Z,98673.84
2022-08-19T23:21:58.194Z,98663.66
2022-08-19T23:25:04.105Z,98660.91
2022-08-19T23:28:24.459Z,98666.84
2022-08-19T23:31:26.391Z,98664.38
2022-08-19T23:34:27.970Z,98663.53
2022-08-19T23:37:29.553Z,98654.22
2022-08-19T23:40:31.209Z,98654.88
2022-08-19T23:43:34.036Z,98647.88
2022-08-19T23:46:54.454Z,98643.84
2022-08-19T23:49:57.043Z,98646.31
2022-08-19T23:52:59.234Z,98639.78
2022-08-19T23:56:00.786Z,98645.69
2022-08-19T23:59:02.418Z,98646.16
